Time;durP1;ratioP1;P1;durP2;ratioP2;P2;SDS_P1;SDS_P2;PMS_P1;PMS_P2;Temp;Humidity;BMP_temperature;BMP_pressure;BME280_temperature;BME280_humidity;BME280_pressure;Samples;Min_cycle;Max_cycle;Signal;HPM_P1;HPM_P2
2022/12/12 00:01:50;;;;;;;25.05;11.18;;;;;;;12.38;47.30;93246.78;5056393;28;20048;-86
2022/12/12 00:04:15;;;;;;;21.70;10.32;;;;;;;12.02;46.93;93253.78;5038883;28;20029;-86
2022/12/12 00:06:41;;;;;;;24.73;11.00;;;;;;;11.65;47.08;93258.38;5056491;28;20086;-86
2022/12/12 00:09:08;;;;;;;25.60;10.90;;;;;;;11.96;47.15;93252.34;5056743;28;20041;-86
2022/12/12 00:11:34;;;;;;;23.60;10.00;;;;;;;12.28;46.77;93255.72;5055440;28;20036;-87
2022/12/12 00:13:59;;;;;;;25.48;11.27;;;;;;;11.25;48.19;93258.28;5055461;28;20044;-86
2022/12/12 00:16:25;;;;;;;21.33;9.77;;;;;;;11.63;47.08;93264.97;5055069;28;20040;-86
2022/12/12 00:18:52;;;;;;;28.40;11.43;;;;;;;11.13;49.18;93264.06;5056696;28;20112;-86
2022/12/12 00:21:23;;;;;;;27.13;11.63;;;;;;;10.36;50.02;93255.97;5055047;28;20120;-86
2022/12/12 00:23:49;;;;;;;24.08;11.02;;;;;;;10.51;49.99;93263.53;5055181;28;20397;-86
2022/12/12 00:26:17;;;;;;;28.65;12.30;;;;;;;9.75;52.43;93257.59;5055454;28;20128;-87
2022/12/12 00:28:43;;;;;;;30.35;12.90;;;;;;;8.92;53.33;93255.50;5055374;28;20358;-87
2022/12/12 00:31:09;;;;;;;33.60;14.02;;;;;;;9.64;52.08;93250.22;5055228;28;20028;-86
2022/12/12 00:33:34;;;;;;;28.38;12.82;;;;;;;10.04;51.50;93253.16;5057851;28;20068;-86
2022/12/12 00:35:59;;;;;;;28.92;11.93;;;;;;;10.71;50.20;93253.69;5059030;28;20028;-86
2022/12/12 00:41:47;;;;;;;28.20;12.57;;;;;;;10.46;50.08;93255.78;5059977;28;20035;-86
2022/12/12 00:44:13;;;;;;;26.08;12.13;;;;;;;10.93;48.85;93260.06;5060062;28;20024;-86
2022/12/12 00:46:39;;;;;;;31.67;12.10;;;;;;;10.36;48.90;93261.19;5060337;28;20033;-86
2022/12/12 00:49:11;;;;;;;28.10;11.48;;;;;;;9.71;51.25;93261.84;5060269;28;20048;-86
2022/12/12 00:51:37;;;;;;;27.25;12.52;;;;;;;9.96;51.10;93262.47;5058795;28;20035;-86
2022/12/12 00:54:02;;;;;;;28.88;12.15;;;;;;;10.32;50.40;93261.75;5059255;28;20037;-86
2022/12/12 00:56:28;;;;;;;26.77;12.45;;;;;;;10.72;48.83;93265.72;5060092;28;20443;-86
2022/12/12 00:58:54;;;;;;;27.02;12.80;;;;;;;9.42;49.68;93272.56;5041884;28;20029;-86
2022/12/12 01:01:23;;;;;;;29.80;12.40;;;;;;;9.36;51.59;93271.84;5059643;28;20036;-86
2022/12/12 01:03:49;;;;;;;29.60;13.00;;;;;;;9.31;51.41;93269.31;5058810;28;20036;-86
2022/12/12 01:06:16;;;;;;;30.38;13.35;;;;;;;9.36;52.19;93276.28;5058998;28;20037;-86
2022/12/12 01:08:41;;;;;;;28.27;13.07;;;;;;;9.59;51.14;93274.59;5058467;28;20363;-86
2022/12/12 01:11:08;;;;;;;30.25;13.48;;;;;;;9.66;51.21;93277.63;5059760;28;20036;-86
2022/12/12 01:13:34;;;;;;;28.35;12.32;;;;;;;9.91;50.37;93278.25;5058523;28;20119;-86
2022/12/12 01:15:59;;;;;;;25.33;11.52;;;;;;;9.72;49.79;93280.94;5058595;28;20193;-86
2022/12/12 01:18:25;;;;;;;24.33;10.93;;;;;;;10.32;48.96;93274.84;5060023;28;20029;-86
2022/12/12 01:20:51;;;;;;;25.08;12.43;;;;;;;10.34;49.21;93269.34;5058407;28;20091;-86
2022/12/12 01:23:16;;;;;;;25.42;11.65;;;;;;;10.40;48.70;93275.25;5058445;28;20033;-86
2022/12/12 01:25:42;;;;;;;22.70;10.60;;;;;;;10.39;48.81;93273.72;5059647;28;20044;-86
2022/12/12 01:28:08;;;;;;;25.33;10.90;;;;;;;10.12;49.54;93283.91;5058626;28;20037;-86
2022/12/12 01:30:34;;;;;;;21.52;9.82;;;;;;;10.01;48.52;93293.75;5057937;28;20079;-86
2022/12/12 01:33:00;;;;;;;22.52;10.88;;;;;;;9.76;48.91;93287.16;5058225;28;20033;-86
2022/12/12 01:35:26;;;;;;;20.45;9.82;;;;;;;10.37;48.66;93291.56;5058215;28;20040;-86
2022/12/12 01:37:51;;;;;;;20.23;10.55;;;;;;;10.23;48.93;93291.53;5058169;28;20036;-87
2022/12/12 01:40:20;;;;;;;21.80;10.80;;;;;;;9.28;51.82;93285.56;5058302;28;20029;-86
2022/12/12 01:42:46;;;;;;;26.13;10.95;;;;;;;10.06;50.55;93274.56;5058101;28;20116;-87
2022/12/12 01:45:49;;;;;;;22.23;10.30;;;;;;;10.82;48.53;93281.22;5058457;28;20111;-86
2022/12/12 01:48:14;;;;;;;14.65;7.47;;;;;;;10.23;48.01;93281.84;5058935;28;20025;-86
2022/12/12 01:50:42;;;;;;;15.88;8.00;;;;;;;9.79;48.43;93278.72;5057873;28;20035;-86
2022/12/12 01:53:08;;;;;;;15.13;7.55;;;;;;;9.03;50.63;93288.28;5057652;28;20425;-86
2022/12/12 01:55:34;;;;;;;17.95;7.97;;;;;;;8.81;51.23;93283.63;5058063;28;20053;-87
2022/12/12 01:58:00;;;;;;;14.68;6.70;;;;;;;9.37;48.79;93288.28;5058094;28;20347;-85
2022/12/12 02:00:26;;;;;;;19.20;8.70;;;;;;;9.06;50.52;93289.56;5057407;28;20119;-86
2022/12/12 02:02:52;;;;;;;19.90;8.88;;;;;;;9.63;50.38;93288.69;5062725;28;20032;-86
2022/12/12 02:05:26;;;;;;;15.50;7.22;;;;;;;10.50;48.07;93295.25;5078512;28;20038;-86
2022/12/12 02:07:53;;;;;;;13.85;7.30;;;;;;;10.13;48.81;93293.31;5075750;28;20426;-86
2022/12/12 02:10:19;;;;;;;11.02;5.70;;;;;;;10.20;47.40;93287.69;5055676;28;20051;-86
2022/12/12 02:12:45;;;;;;;12.88;6.07;;;;;;;9.55;47.18;93297.16;5068661;28;20043;-86
2022/12/12 02:15:11;;;;;;;10.43;5.70;;;;;;;9.86;47.78;93294.03;5066398;28;20124;-86
2022/12/12 02:18:00;;;;;;;13.02;6.50;;;;;;;10.27;48.47;93288.06;5057032;28;20033;-85
2022/12/12 02:20:35;;;;;;;11.20;5.85;;;;;;;10.14;46.75;93292.22;5056880;28;20131;-85
2022/12/12 02:23:19;;;;;;;11.68;5.72;;;;;;;10.70;46.91;93291.44;5058549;28;20423;-85
2022/12/12 02:26:02;;;;;;;11.75;5.78;;;;;;;10.67;46.80;93284.19;5058428;28;20094;-85
2022/12/12 02:28:33;;;;;;;12.48;6.03;;;;;;;10.37;45.88;93284.47;5058442;28;20040;-86
2022/12/12 02:31:13;;;;;;;12.82;6.15;;;;;;;9.83;48.10;93292.00;5058625;28;20045;-86
2022/12/12 02:33:47;;;;;;;10.63;5.97;;;;;;;9.90;47.40;93292.41;5057033;28;20044;-85
2022/12/12 02:36:24;;;;;;;12.55;6.00;;;;;;;10.26;47.40;93283.88;5057942;28;20037;-86
2022/12/12 02:38:56;;;;;;;16.05;6.38;;;;;;;10.41;46.66;93287.31;5056796;28;20025;-85
2022/12/12 02:41:31;;;;;;;11.95;5.55;;;;;;;10.23;47.09;93281.84;5058024;28;20033;-85
2022/12/12 02:44:08;;;;;;;11.45;5.60;;;;;;;10.23;47.06;93281.84;5056611;28;20033;-86
2022/12/12 02:46:38;;;;;;;9.15;4.25;;;;;;;10.33;45.40;93286.91;5057830;28;20029;-86
2022/12/12 02:49:43;;;;;;;8.40;4.55;;;;;;;10.64;45.05;93287.38;5058021;28;20040;-85
2022/12/12 02:52:10;;;;;;;8.65;4.20;;;;;;;9.91;45.71;93291.34;5057779;28;20041;-85
2022/12/12 02:54:36;;;;;;;8.40;4.72;;;;;;;9.14;46.78;93285.53;5056380;28;20036;-85
2022/12/12 02:57:02;;;;;;;9.45;4.47;;;;;;;9.87;46.98;93282.50;5056170;28;20124;-85
2022/12/12 02:59:32;;;;;;;10.18;4.18;;;;;;;10.33;45.82;93286.91;5056615;28;20041;-85
2022/12/12 03:02:19;;;;;;;6.32;3.80;;;;;;;10.74;43.70;93290.56;5056399;28;20056;-85
2022/12/12 03:08:06;;;;;;;9.10;4.18;;;;;;;10.59;45.45;93294.25;5057387;28;20039;-85
2022/12/12 03:10:45;;;;;;;8.65;4.05;;;;;;;9.98;46.81;93296.97;5057236;28;20028;-85
2022/12/12 03:13:31;;;;;;;8.65;3.88;;;;;;;10.64;45.21;93296.00;5057543;28;20039;-85
2022/12/12 03:16:27;;;;;;;7.35;3.78;;;;;;;10.84;45.48;93300.06;5057171;28;20049;-85
2022/12/12 03:18:55;;;;;;;6.50;3.40;;;;;;;9.48;46.28;93298.31;5057486;28;20347;-85
2022/12/12 03:21:44;;;;;;;6.38;3.25;;;;;;;9.62;45.48;93293.13;5057606;28;20047;-85
2022/12/12 03:24:22;;;;;;;7.22;3.58;;;;;;;11.08;43.85;93308.72;5054391;28;20044;-86
2022/12/12 03:26:54;;;;;;;5.18;3.28;;;;;;;10.81;42.55;93305.88;5055947;28;20075;-85
2022/12/12 03:29:26;;;;;;;5.43;2.80;;;;;;;10.59;43.49;93304.75;5055801;28;20036;-85
2022/12/12 03:31:58;;;;;;;6.28;3.22;;;;;;;9.66;45.63;93301.19;5055858;28;20043;-85
2022/12/12 03:34:29;;;;;;;7.30;3.47;;;;;;;9.65;46.02;93304.84;5056021;28;20055;-85
2022/12/12 03:37:06;;;;;;;6.75;3.50;;;;;;;9.96;46.30;93309.56;5055967;28;20048;-85
2022/12/12 03:39:42;;;;;;;7.15;3.45;;;;;;;9.37;47.55;93309.22;5055596;28;20021;-86
2022/12/12 03:42:11;;;;;;;6.40;3.33;;;;;;;10.52;45.50;93308.81;5055911;28;20032;-85
2022/12/12 03:44:48;;;;;;;8.63;4.25;;;;;;;10.95;44.01;93318.19;5055568;28;20036;-85
2022/12/12 03:47:20;;;;;;;7.05;3.10;;;;;;;10.80;44.01;93317.44;5055553;28;20430;-85
2022/12/12 03:49:49;;;;;;;8.93;4.20;;;;;;;10.80;44.95;93324.50;5056647;28;20070;-85
2022/12/12 03:52:20;;;;;;;9.75;5.43;;;;;;;9.49;47.30;93333.06;5056750;28;20068;-85
2022/12/12 03:54:58;;;;;;;11.30;5.53;;;;;;;10.30;47.56;93325.97;5055366;28;20029;-85
2022/12/12 03:57:29;;;;;;;10.27;5.80;;;;;;;9.53;48.25;93331.44;5055468;28;20072;-85
2022/12/12 04:00:04;;;;;;;10.68;5.40;;;;;;;10.14;46.40;93331.50;5055323;28;20025;-86
2022/12/12 04:02:43;;;;;;;10.82;6.05;;;;;;;9.24;48.60;93321.94;5055674;28;20055;-85
2022/12/12 04:05:19;;;;;;;12.82;6.22;;;;;;;9.47;48.11;93329.97;5055547;28;20458;-85
2022/12/12 04:08:20;;;;;;;11.05;5.82;;;;;;;10.06;45.72;93328.78;5072020;28;20082;-85
2022/12/12 04:14:01;;;;;;;6.50;3.42;;;;;;;10.26;44.87;93330.25;5055728;28;20503;-86
2022/12/12 04:16:30;;;;;;;5.43;2.80;;;;;;;10.26;44.90;93331.00;5054595;28;20111;-85
2022/12/12 04:19:00;;;;;;;7.63;3.60;;;;;;;9.31;46.17;93332.03;5071954;28;20039;-85
2022/12/12 04:24:42;;;;;;;5.82;3.50;;;;;;;10.04;45.90;93332.47;5055396;28;20032;-85
2022/12/12 04:27:22;;;;;;;4.65;2.60;;;;;;;9.55;45.86;93334.56;5056321;28;20074;-86
2022/12/12 04:29:53;;;;;;;5.47;3.10;;;;;;;10.36;44.24;93329.28;5056214;28;20430;-85
2022/12/12 04:32:25;;;;;;;5.28;2.65;;;;;;;10.49;43.11;93323.28;5055277;28;20036;-85
2022/12/12 04:34:58;;;;;;;6.90;3.38;;;;;;;9.71;43.67;93326.47;5055436;28;20082;-85
2022/12/12 04:37:39;;;;;;;6.05;3.30;;;;;;;9.81;44.66;93333.38;5055372;28;20465;-85
2022/12/12 04:40:07;;;;;;;5.70;2.85;;;;;;;9.12;46.64;93338.06;5056319;28;20036;-85
2022/12/12 04:42:36;;;;;;;5.97;2.92;;;;;;;9.47;47.02;93332.59;5071636;28;20025;-85
2022/12/12 04:45:17;;;;;;;5.20;3.00;;;;;;;9.97;44.03;93333.88;5056457;28;20342;-85
2022/12/12 04:47:58;;;;;;;8.93;3.03;;;;;;;10.18;44.58;93339.53;5071659;28;20028;-85
2022/12/12 04:50:26;;;;;;;7.00;3.15;;;;;;;9.04;45.93;93339.47;5055083;28;20029;-85
2022/12/12 04:52:52;;;;;;;7.22;3.22;;;;;;;9.79;45.32;93338.88;5054553;28;20028;-84
2022/12/12 04:55:23;;;;;;;6.53;3.13;;;;;;;10.20;43.59;93347.88;5060590;28;20033;-85
2022/12/12 04:57:50;;;;;;;7.93;3.30;;;;;;;8.54;46.18;93352.88;5075216;28;20369;-85
2022/12/12 05:00:16;;;;;;;6.03;2.92;;;;;;;9.21;44.51;93347.88;5075042;28;20036;-85
2022/12/12 05:02:56;;;;;;;5.85;3.13;;;;;;;9.50;44.09;93345.09;5074823;28;20111;-85
2022/12/12 05:05:41;;;;;;;6.63;2.78;;;;;;;9.88;42.47;93354.69;5074908;28;20031;-84
2022/12/12 05:08:27;;;;;;;5.78;3.03;;;;;;;10.80;42.34;93351.50;5074935;28;20032;-84
2022/12/12 05:10:54;;;;;;;6.63;2.90;;;;;;;10.14;43.35;93351.66;5074955;28;20033;-84
2022/12/12 05:13:23;;;;;;;5.60;2.72;;;;;;;9.02;45.70;93361.69;5058301;28;20028;-85
2022/12/12 05:15:52;;;;;;;6.80;3.28;;;;;;;8.78;47.68;93370.38;5074613;28;20389;-85
2022/12/12 05:18:30;;;;;;;7.63;4.32;;;;;;;9.11;46.51;93372.28;5058182;28;20430;-85
2022/12/12 05:20:55;;;;;;;10.32;4.90;;;;;;;8.74;47.78;93369.34;5076685;28;20040;-85
2022/12/12 05:23:20;;;;;;;8.90;4.47;;;;;;;8.67;46.72;93376.78;5061531;28;20414;-85
2022/12/12 05:25:46;;;;;;;7.90;4.00;;;;;;;9.67;44.84;93383.81;5079636;28;20037;-84
2022/12/12 05:28:11;;;;;;;8.13;4.55;;;;;;;9.53;45.56;93388.19;5079636;28;20122;-84
2022/12/12 05:30:37;;;;;;;8.52;4.13;;;;;;;9.96;44.23;93389.88;5078285;28;20036;-84
2022/12/12 05:33:02;;;;;;;8.52;4.18;;;;;;;9.59;44.89;93389.66;5079415;28;20141;-84
2022/12/12 05:35:28;;;;;;;8.50;4.35;;;;;;;9.64;44.85;93392.22;5079024;28;20028;-84
2022/12/12 05:37:53;;;;;;;7.30;4.20;;;;;;;10.12;44.02;93380.75;5079433;28;20093;-84
2022/12/12 05:40:20;;;;;;;7.60;4.25;;;;;;;9.95;44.37;93390.94;5078036;28;20177;-83
2022/12/12 05:42:47;;;;;;;8.80;4.10;;;;;;;10.33;44.37;93390.84;5078104;28;20036;-84
2022/12/12 05:45:12;;;;;;;9.68;4.38;;;;;;;10.22;43.55;93395.50;5078054;28;20059;-84
2022/12/12 05:47:38;;;;;;;9.07;4.30;;;;;;;10.17;43.52;93393.72;5078040;28;20067;-86
2022/12/12 05:50:04;;;;;;;8.68;4.18;;;;;;;9.04;46.58;93393.56;5079040;28;20108;-86
2022/12/12 05:52:30;;;;;;;9.82;3.90;;;;;;;9.35;46.18;93390.53;5071422;28;20036;-84
2022/12/12 05:54:55;;;;;;;8.85;4.35;;;;;;;9.93;44.89;93399.09;5078879;28;20036;-85
2022/12/12 05:57:21;;;;;;;6.78;3.85;;;;;;;10.49;43.92;93396.63;5079065;28;20426;-85
2022/12/12 05:59:47;;;;;;;8.07;3.80;;;;;;;10.51;44.11;93399.72;5078802;28;20028;-85
2022/12/12 06:02:14;;;;;;;7.15;3.70;;;;;;;10.45;43.57;93403.47;5077761;28;20035;-84
2022/12/12 06:04:39;;;;;;;8.00;4.15;;;;;;;10.50;43.95;93405.25;5078961;28;20040;-85
2022/12/12 06:07:05;;;;;;;8.02;4.15;;;;;;;10.64;43.96;93403.41;5078899;28;20059;-85
2022/12/12 06:09:31;;;;;;;9.90;4.10;;;;;;;10.18;44.53;93410.97;5077112;28;20085;-85
2022/12/12 06:11:56;;;;;;;10.63;4.30;;;;;;;9.09;46.77;93414.41;5077392;28;20035;-85
2022/12/12 06:14:22;;;;;;;10.93;4.28;;;;;;;9.67;44.81;93414.41;5077611;28;20036;-85
2022/12/12 06:16:47;;;;;;;8.02;3.75;;;;;;;9.41;43.89;93415.53;5078693;28;20391;-85
2022/12/12 06:19:25;;;;;;;7.53;4.05;;;;;;;10.15;45.00;93410.78;5078552;28;20507;-84
2022/12/12 06:21:50;;;;;;;8.93;4.47;;;;;;;10.18;43.82;93412.81;5076901;28;20051;-85
2022/12/12 06:24:16;;;;;;;7.85;4.00;;;;;;;9.84;43.63;93406.84;5078289;28;20106;-84
2022/12/12 06:26:41;;;;;;;5.53;2.92;;;;;;;9.04;44.81;93404.03;5077000;28;20026;-85
2022/12/12 06:29:07;;;;;;;8.20;3.33;;;;;;;9.49;43.41;93401.06;5074733;28;20035;-85
2022/12/12 06:31:32;;;;;;;6.05;3.40;;;;;;;10.11;42.76;93407.94;5076525;28;20040;-85
2022/12/12 06:33:58;;;;;;;7.30;2.90;;;;;;;9.22;44.01;93415.53;5078262;28;20029;-85
2022/12/12 06:36:24;;;;;;;8.10;4.07;;;;;;;8.74;45.90;93417.16;5076806;28;20040;-85
2022/12/12 06:42:12;;;;;;;6.40;3.50;;;;;;;9.49;43.99;93421.97;5077792;28;20464;-85
2022/12/12 06:44:37;;;;;;;5.80;3.35;;;;;;;8.12;47.87;93422.97;5074618;28;20054;-85
2022/12/12 06:47:02;;;;;;;6.72;3.65;;;;;;;8.65;46.26;93433.72;5072132;28;20033;-85
2022/12/12 06:49:28;;;;;;;7.30;3.40;;;;;;;9.38;45.48;93426.56;5076600;28;20047;-85
2022/12/12 06:51:53;;;;;;;8.10;3.30;;;;;;;9.75;44.53;93426.84;5077681;28;20130;-85
2022/12/12 06:54:19;;;;;;;7.82;3.50;;;;;;;9.64;44.04;93431.44;5076778;28;20108;-85
2022/12/12 06:56:44;;;;;;;9.35;3.47;;;;;;;9.62;42.97;93431.72;5077810;28;20059;-85
2022/12/12 06:59:11;;;;;;;7.65;4.00;;;;;;;9.97;43.14;93436.72;5076250;28;20032;-85
2022/12/12 07:01:36;;;;;;;5.72;3.38;;;;;;;8.53;45.56;93450.53;5076504;28;20315;-85
2022/12/12 07:04:02;;;;;;;7.32;3.28;;;;;;;8.57;45.37;93458.59;5076499;28;20074;-85
2022/12/12 07:06:27;;;;;;;10.60;3.22;;;;;;;9.15;44.80;93452.47;5076525;28;20456;-85
2022/12/12 07:08:53;;;;;;;7.57;3.30;;;;;;;8.27;46.57;93457.81;5077670;28;20036;-85
2022/12/12 07:11:21;;;;;;;6.85;2.67;;;;;;;9.51;44.69;93460.94;5077491;28;20116;-85
2022/12/12 07:13:47;;;;;;;5.97;3.25;;;;;;;8.61;45.39;93463.00;5076294;28;20107;-86
2022/12/12 07:16:13;;;;;;;6.47;3.25;;;;;;;7.97;46.89;93465.59;5077540;28;20060;-85
2022/12/12 07:18:39;;;;;;;10.27;4.47;;;;;;;8.22;45.94;93469.06;5076528;28;20484;-85
2022/12/12 07:21:10;;;;;;;8.60;3.85;;;;;;;9.45;44.46;93471.44;5076162;28;20032;-85
2022/12/12 07:23:36;;;;;;;7.82;3.95;;;;;;;9.49;44.13;93469.03;5077483;28;20052;-86
2022/12/12 07:26:10;;;;;;;8.85;4.15;;;;;;;10.06;43.04;93475.31;5076234;28;20138;-85
2022/12/12 07:28:37;;;;;;;13.23;4.50;;;;;;;9.79;43.17;93466.28;5076177;28;20480;-85
2022/12/12 07:31:07;;;;;;;8.70;4.20;;;;;;;9.96;43.50;93471.00;5075950;28;20498;-85
2022/12/12 07:33:32;;;;;;;9.43;4.57;;;;;;;7.98;46.56;93476.81;5075748;28;20024;-85
2022/12/12 07:35:58;;;;;;;8.98;4.63;;;;;;;8.67;45.81;93476.00;5075780;28;20032;-85
2022/12/12 07:38:24;;;;;;;8.10;4.05;;;;;;;9.58;43.26;93474.41;5076019;28;20473;-85
2022/12/12 07:40:50;;;;;;;7.30;4.22;;;;;;;9.17;43.99;93467.88;5077048;28;20028;-85
2022/12/12 07:43:15;;;;;;;9.15;4.30;;;;;;;9.65;43.67;93474.84;5074818;28;20031;-86
2022/12/12 07:45:45;;;;;;;9.30;4.35;;;;;;;10.46;42.59;93475.75;5077074;28;20025;-85
2022/12/12 07:48:10;;;;;;;8.93;4.50;;;;;;;9.38;44.12;93478.84;5075918;28;20024;-86
2022/12/12 07:50:40;;;;;;;8.50;4.10;;;;;;;10.46;42.99;93483.59;5076950;28;20055;-86
2022/12/12 07:53:06;;;;;;;8.15;4.45;;;;;;;10.11;43.33;93483.09;5076803;28;20039;-85
2022/12/12 07:55:33;;;;;;;8.70;4.03;;;;;;;10.32;43.67;93483.53;5075463;28;20024;-86
2022/12/12 07:57:58;;;;;;;8.30;4.22;;;;;;;10.06;42.62;93485.78;5075472;28;20032;-85
2022/12/12 08:00:24;;;;;;;7.70;4.25;;;;;;;9.46;44.57;93486.06;5076815;28;20456;-85
2022/12/12 08:02:49;;;;;;;12.32;4.50;;;;;;;8.55;47.21;93498.03;5076876;28;20070;-85
2022/12/12 08:05:15;;;;;;;13.85;5.63;;;;;;;9.33;44.30;93497.22;5075655;28;20093;-85
2022/12/12 08:07:46;;;;;;;9.55;4.47;;;;;;;10.72;42.88;93494.44;5075403;28;20376;-85
2022/12/12 08:10:11;;;;;;;10.50;4.55;;;;;;;10.44;43.62;93498.81;5076712;28;20462;-85
2022/12/12 08:12:36;;;;;;;6.57;3.60;;;;;;;10.68;43.45;93492.66;5058773;28;20064;-85
2022/12/12 08:15:02;;;;;;;7.38;3.50;;;;;;;10.53;42.93;93494.50;5075291;28;20055;-85
2022/12/12 08:17:28;;;;;;;8.30;3.88;;;;;;;10.46;43.39;93499.31;5077013;28;20043;-85
2022/12/12 08:19:53;;;;;;;9.80;4.43;;;;;;;10.26;43.51;93495.94;5075177;28;20131;-85
2022/12/12 08:22:18;;;;;;;6.43;3.53;;;;;;;9.76;45.08;93507.66;5076663;28;20450;-85
2022/12/12 08:24:44;;;;;;;9.43;4.70;;;;;;;9.39;47.30;93511.78;5076678;28;20037;-85
2022/12/12 08:27:10;;;;;;;6.90;4.22;;;;;;;9.61;46.76;93513.88;5075130;28;20032;-85
2022/12/12 08:29:35;;;;;;;10.27;4.28;;;;;;;10.12;46.78;93510.81;5075473;28;20442;-85
2022/12/12 08:32:01;;;;;;;11.55;5.40;;;;;;;10.95;45.46;93515.50;5076451;28;20033;-85
2022/12/12 08:34:26;;;;;;;10.75;4.95;;;;;;;11.28;45.55;93517.25;5076554;28;20098;-85
2022/12/12 08:36:53;;;;;;;8.07;4.50;;;;;;;10.67;46.94;93525.94;5075106;28;20059;-86
2022/12/12 08:39:19;;;;;;;8.23;4.28;;;;;;;11.31;42.99;93524.53;5075120;28;20070;-85
2022/12/12 08:41:47;;;;;;;12.02;4.78;;;;;;;11.32;46.40;93533.97;5074979;28;20033;-86
2022/12/12 08:44:12;;;;;;;8.43;4.32;;;;;;;12.10;44.54;93540.28;5075329;28;20040;-85
2022/12/12 08:46:38;;;;;;;7.88;4.38;;;;;;;11.60;45.48;93544.44;5075289;28;20029;-85
2022/12/12 08:49:04;;;;;;;7.00;4.13;;;;;;;11.90;44.74;93538.84;5076355;28;20047;-86
2022/12/12 08:51:29;;;;;;;8.95;4.20;;;;;;;12.27;43.97;93537.78;5074748;28;20044;-85
2022/12/12 08:53:55;;;;;;;6.85;4.10;;;;;;;11.89;45.08;93545.94;5077039;28;20029;-85
2022/12/12 08:56:21;;;;;;;10.35;3.92;;;;;;;12.60;43.94;93547.28;5078907;28;20036;-85
2022/12/12 08:58:47;;;;;;;8.30;4.22;;;;;;;11.93;43.89;93546.13;5078643;28;20051;-85
2022/12/12 09:01:16;;;;;;;7.10;4.15;;;;;;;12.46;44.93;93542.09;5078431;28;20036;-86
2022/12/12 09:03:42;;;;;;;11.68;4.15;;;;;;;12.77;43.13;93540.59;5080030;28;20145;-85
2022/12/12 09:06:09;;;;;;;8.65;4.13;;;;;;;12.51;43.33;93544.63;5079991;28;20114;-85
2022/12/12 09:08:34;;;;;;;10.07;3.70;;;;;;;11.68;41.48;93545.59;5079681;28;20105;-85
2022/12/12 09:11:00;;;;;;;7.53;3.30;;;;;;;12.29;41.14;93554.03;5078367;28;20079;-85
2022/12/12 09:13:25;;;;;;;7.05;3.42;;;;;;;12.64;41.01;93547.47;5078222;28;20339;-85
2022/12/12 09:15:51;;;;;;;7.30;3.92;;;;;;;12.72;42.11;93546.75;5078669;28;20040;-85
2022/12/12 09:18:17;;;;;;;6.25;3.35;;;;;;;12.99;42.38;93551.06;5078593;28;20111;-86
2022/12/12 09:20:50;;;;;;;7.68;3.78;;;;;;;12.36;44.25;93540.47;5078424;28;20029;-85
2022/12/12 09:23:16;;;;;;;8.00;4.13;;;;;;;12.06;43.98;93545.34;5079446;28;20012;-85
2022/12/12 09:25:41;;;;;;;6.63;4.25;;;;;;;11.85;44.62;93545.78;5078493;28;20040;-85
2022/12/12 09:28:07;;;;;;;10.18;4.50;;;;;;;12.11;43.49;93552.34;5079619;28;20438;-85
2022/12/12 09:30:33;;;;;;;9.88;4.22;;;;;;;12.24;43.49;93551.53;5079445;28;20033;-85
2022/12/12 09:32:58;;;;;;;7.50;4.45;;;;;;;11.71;46.41;93545.03;5079423;28;20051;-85
2022/12/12 09:35:23;;;;;;;9.43;4.43;;;;;;;12.33;44.75;93556.84;5079515;28;20032;-86
2022/12/12 09:37:49;;;;;;;9.00;4.20;;;;;;;12.43;43.19;93555.84;5079368;28;20028;-85
2022/12/12 09:40:22;;;;;;;8.70;4.30;;;;;;;11.87;45.10;93548.88;5079227;28;20028;-85
2022/12/12 09:42:48;;;;;;;;;;;;;;;13.27;42.17;93561.41;5078666;28;20024;-85
2022/12/12 09:45:14;;;;;;;7.63;3.92;;;;;;;12.98;42.89;93561.88;5079342;28;19919;-86
2022/12/12 09:47:43;;;;;;;7.25;4.20;;;;;;;13.85;43.45;93561.44;5078101;28;20036;-86
2022/12/12 09:50:18;;;;;;;6.90;3.53;;;;;;;14.28;42.24;93551.25;5078039;28;20352;-85
2022/12/12 09:52:43;;;;;;;7.72;3.80;;;;;;;14.00;42.55;93557.59;5077884;28;20106;-86
2022/12/12 09:55:24;;;;;;;6.60;3.28;;;;;;;12.57;42.22;93563.66;5078011;28;20028;-86
2022/12/12 09:58:05;;;;;;;5.53;3.20;;;;;;;14.30;40.19;93561.47;5077836;28;20070;-85
2022/12/12 10:00:35;;;;;;;7.40;3.45;;;;;;;14.75;40.58;93555.13;5077458;28;20438;-86
2022/12/12 10:03:34;;;;;;;6.68;3.53;;;;;;;16.16;38.69;93554.53;5077561;28;20021;-86
2022/12/12 10:06:08;;;;;;;7.45;3.88;;;;;;;17.15;38.68;93551.47;5076875;28;20495;-86
2022/12/12 10:08:34;;;;;;;8.63;3.70;;;;;;;16.72;37.22;93545.50;5077352;28;20061;-86
2022/12/12 10:11:05;;;;;;;6.88;3.88;;;;;;;17.08;38.02;93546.72;5078758;28;20032;-86
2022/12/12 10:13:33;;;;;;;6.40;4.13;;;;;;;17.72;37.89;93551.72;5077569;28;20373;-87
2022/12/12 10:16:05;;;;;;;7.82;4.30;;;;;;;16.75;38.92;93539.56;5077478;28;20050;-86
2022/12/12 10:18:48;;;;;;;9.18;4.97;;;;;;;17.27;37.62;93554.13;5077238;28;20052;-87
2022/12/12 10:21:21;;;;;;;7.55;4.70;;;;;;;16.87;38.06;93536.97;5077394;28;20076;-86
2022/12/12 10:24:10;;;;;;;7.47;4.57;;;;;;;16.03;39.64;93541.25;5077392;28;20050;-86
2022/12/12 10:26:35;;;;;;;10.80;5.40;;;;;;;16.47;37.36;93538.25;5077308;28;20035;-87
2022/12/12 10:29:14;;;;;;;10.00;5.90;;;;;;;16.41;38.08;93531.63;5077333;28;20028;-86
2022/12/12 10:31:39;;;;;;;10.13;5.85;;;;;;;15.97;38.15;93529.31;5076833;28;20021;-86
2022/12/12 10:34:07;;;;;;;13.93;5.60;;;;;;;15.37;39.31;93524.81;5066075;28;20124;-86
2022/12/12 10:36:51;;;;;;;8.07;4.93;;;;;;;16.22;38.44;93530.22;5058053;28;20063;-86
2022/12/12 10:39:34;;;;;;;;;;;;;;;16.63;37.46;93538.41;5058437;28;20078;-86
2022/12/12 10:42:21;;;;;;;11.07;5.25;;;;;;;16.13;38.59;93536.66;5058177;28;20288;-86
2022/12/12 10:45:18;;;;;;;8.85;4.95;;;;;;;16.10;38.23;93528.28;5057868;28;20028;-86
2022/12/12 10:51:10;;;;;;;7.82;4.72;;;;;;;14.89;40.13;93539.88;5057661;28;20132;-86
2022/12/12 10:53:37;;;;;;;11.02;6.03;;;;;;;15.08;40.49;93539.53;5056674;28;20037;-86
2022/12/12 10:56:09;;;;;;;15.40;6.13;;;;;;;15.95;39.72;93529.63;5056739;28;20091;-86
2022/12/12 10:58:38;;;;;;;12.90;6.37;;;;;;;16.24;40.33;93537.81;5057954;28;20035;-86
2022/12/12 11:01:39;;;;;;;13.55;5.80;;;;;;;16.28;40.18;93530.03;5056221;28;20091;-85
2022/12/12 11:04:04;;;;;;;11.70;6.07;;;;;;;16.47;39.14;93522.38;5052614;28;20041;-85
2022/12/12 11:06:39;;;;;;;11.95;6.20;;;;;;;17.15;38.58;93514.41;5056467;28;20389;-86
2022/12/12 11:09:16;;;;;;;11.30;5.80;;;;;;;17.06;37.56;93510.00;5056519;28;20461;-85
2022/12/12 11:11:59;;;;;;;11.38;6.25;;;;;;;16.30;37.80;93496.09;5057412;28;20052;-85
2022/12/12 11:14:45;;;;;;;12.23;6.63;;;;;;;16.62;37.50;93502.50;5057658;28;20460;-86
2022/12/12 11:17:43;;;;;;;11.70;6.53;;;;;;;16.29;38.56;93492.72;5056342;28;20075;-85
2022/12/12 11:20:16;;;;;;;16.88;7.53;;;;;;;14.39;40.07;93493.75;5057132;28;20056;-86
2022/12/12 11:22:41;;;;;;;;;;;;;;;15.64;38.30;93493.78;5056753;28;20521;-86
2022/12/12 11:25:30;;;;;;;12.93;6.60;;;;;;;15.65;37.72;93495.31;5057416;28;19912;-85
2022/12/12 11:27:58;;;;;;;15.10;7.28;;;;;;;15.14;39.08;93495.28;5055977;28;20397;-86
2022/12/12 11:30:35;;;;;;;12.25;6.68;;;;;;;15.66;37.96;93491.59;5056015;28;20442;-85
2022/12/12 11:33:02;;;;;;;9.77;5.75;;;;;;;15.41;37.73;93488.00;5057494;28;20033;-86
2022/12/12 11:35:38;;;;;;;11.43;6.43;;;;;;;15.79;37.79;93496.94;5056099;28;20069;-85
2022/12/12 11:38:17;;;;;;;12.23;6.40;;;;;;;16.37;38.02;93491.84;5057208;28;20088;-85
2022/12/12 11:40:43;;;;;;;8.57;5.07;;;;;;;16.20;38.32;93490.13;5055597;28;20029;-85
2022/12/12 11:43:17;;;;;;;12.38;5.68;;;;;;;16.17;38.71;93493.41;5055680;28;20059;-86
2022/12/12 11:45:56;;;;;;;9.45;5.40;;;;;;;16.37;38.69;93499.00;5055604;28;20044;-85
2022/12/12 11:48:51;;;;;;;10.18;5.40;;;;;;;17.39;37.54;93495.13;5055888;28;20052;-85
2022/12/12 11:51:36;;;;;;;9.25;4.85;;;;;;;17.80;36.85;93493.31;5056695;28;20032;-85
2022/12/12 11:54:11;;;;;;;8.52;5.00;;;;;;;17.45;36.49;93488.53;5056904;28;20041;-85
2022/12/12 11:56:40;;;;;;;8.90;4.88;;;;;;;17.59;36.59;93490.81;5055736;28;20047;-85
2022/12/12 11:59:22;;;;;;;10.25;5.50;;;;;;;18.05;35.91;93492.50;5056624;28;20033;-85
2022/12/12 12:01:56;;;;;;;9.13;4.93;;;;;;;17.64;35.99;93487.91;5055228;28;20029;-85
2022/12/12 12:04:34;;;;;;;8.95;4.90;;;;;;;16.95;36.26;93490.34;5056886;28;20035;-85
2022/12/12 12:07:14;;;;;;;9.35;5.03;;;;;;;17.89;35.47;93493.19;5055666;28;20078;-85